createdAt,value
2022-08-24T00:01:29.309Z,17.37
2022-08-24T00:04:01.380Z,17.35
2022-08-24T00:06:29.804Z,17.30
2022-08-24T00:08:59.262Z,17.26
2022-08-24T00:11:27.847Z,17.25
2022-08-24T00:13:55.680Z,17.23
2022-08-24T00:16:24.148Z,17.17
2022-08-24T00:18:51.834Z,17.15
2022-08-24T00:21:20.390Z,17.11
2022-08-24T00:23:50.558Z,17.10
2022-08-24T00:26:28.599Z,17.07
2022-08-24T00:28:57.205Z,17.05
2022-08-24T00:31:24.986Z,16.99
2022-08-24T00:33:52.706Z,16.95
2022-08-24T00:36:22.727Z,16.93
2022-08-24T00:38:50.796Z,16.89
2022-08-24T00:41:18.575Z,16.86
2022-08-24T00:43:59.352Z,16.86
2022-08-24T00:46:46.442Z,16.80
2022-08-24T00:49:34.758Z,16.75
2022-08-24T00:52:09.545Z,16.70
2022-08-24T00:54:46.122Z,16.67
2022-08-24T00:57:19.217Z,16.65
2022-08-24T00:59:53.554Z,16.65
2022-08-24T01:02:33.556Z,16.59
2022-08-24T01:05:04.991Z,16.56
2022-08-24T01:07:34.349Z,16.54
2022-08-24T01:10:06.581Z,16.54
2022-08-24T01:12:37.335Z,16.54
2022-08-24T01:15:07.865Z,16.50
2022-08-24T01:17:56.219Z,16.49
2022-08-24T01:20:27.353Z,16.45
2022-08-24T01:23:11.932Z,16.41
2022-08-24T01:25:43.114Z,16.37
2022-08-24T01:28:23.776Z,16.31
2022-08-24T01:30:55.838Z,16.32
2022-08-24T01:33:27.346Z,16.28
2022-08-24T01:36:10.681Z,16.26
2022-08-24T01:38:38.420Z,16.26
2022-08-24T01:41:06.300Z,16.26
2022-08-24T01:43:36.935Z,16.25
2022-08-24T01:46:05.433Z,16.24
2022-08-24T01:48:33.221Z,16.22
2022-08-24T01:51:01.150Z,16.20
2022-08-24T01:53:29.231Z,16.17
2022-08-24T01:55:56.963Z,16.13
2022-08-24T01:58:25.754Z,16.14
2022-08-24T02:00:53.437Z,16.13
2022-08-24T02:03:21.565Z,16.12
2022-08-24T02:05:57.199Z,16.11
2022-08-24T02:08:24.864Z,16.09
2022-08-24T02:10:56.460Z,16.09
2022-08-24T02:13:24.876Z,16.05
2022-08-24T02:15:52.636Z,16.03
2022-08-24T02:18:20.652Z,15.99
2022-08-24T02:20:48.337Z,15.97
2022-08-24T02:23:16.036Z,15.96
2022-08-24T02:25:43.740Z,15.93
2022-08-24T02:28:11.575Z,15.89
2022-08-24T02:30:41.341Z,15.90
2022-08-24T02:33:09.430Z,15.87
2022-08-24T02:35:37.356Z,15.85
2022-08-24T02:38:05.198Z,15.82
2022-08-24T02:40:33.475Z,15.81
2022-08-24T02:43:01.117Z,15.79
2022-08-24T02:45:28.956Z,15.75
2022-08-24T02:47:56.654Z,15.73
2022-08-24T02:50:24.697Z,15.73
2022-08-24T02:52:52.397Z,15.71
2022-08-24T02:55:20.690Z,15.67
2022-08-24T02:57:49.421Z,15.62
2022-08-24T03:00:20.094Z,15.62
2022-08-24T03:02:47.901Z,15.60
2022-08-24T03:05:16.465Z,15.58
2022-08-24T03:07:44.879Z,15.59
2022-08-24T03:10:12.875Z,15.58
2022-08-24T03:12:40.878Z,15.58
2022-08-24T03:15:12.464Z,15.56
2022-08-24T03:17:41.120Z,15.54
2022-08-24T03:20:14.959Z,15.53
2022-08-24T03:22:43.420Z,15.51
2022-08-24T03:25:12.423Z,15.51
2022-08-24T03:27:40.646Z,15.47
2022-08-24T03:30:11.418Z,15.47
2022-08-24T03:32:39.824Z,15.46
2022-08-24T03:35:08.529Z,15.45
2022-08-24T03:37:36.209Z,15.46
2022-08-24T03:40:04.705Z,15.48
2022-08-24T03:42:33.185Z,15.46
2022-08-24T03:45:01.011Z,15.42
2022-08-24T03:47:28.742Z,15.39
2022-08-24T03:49:57.410Z,15.37
2022-08-24T03:52:25.151Z,15.35
2022-08-24T03:54:53.877Z,15.33
2022-08-24T03:57:21.583Z,15.32
2022-08-24T03:59:49.308Z,15.28
2022-08-24T04:02:17.043Z,15.28
2022-08-24T04:04:44.857Z,15.28
2022-08-24T04:07:12.706Z,15.26
2022-08-24T04:09:40.425Z,15.23
2022-08-24T04:12:08.269Z,15.21
2022-08-24T04:14:36.437Z,15.17
2022-08-24T04:17:05.637Z,15.14
2022-08-24T04:19:34.750Z,15.12
2022-08-24T04:22:02.465Z,15.09
2022-08-24T04:24:30.489Z,15.07
2022-08-24T04:26:58.202Z,15.01
2022-08-24T04:29:26.680Z,15.03
2022-08-24T04:31:54.634Z,15.02
2022-08-24T04:34:22.529Z,15.02
2022-08-24T04:36:50.253Z,15.04
2022-08-24T04:39:17.934Z,15.05
2022-08-24T04:41:45.650Z,15.06
2022-08-24T04:44:14.059Z,15.08
2022-08-24T04:46:41.825Z,15.04
2022-08-24T04:49:09.633Z,15.06
2022-08-24T04:51:37.707Z,15.05
2022-08-24T04:54:07.434Z,15.07
2022-08-24T04:56:36.081Z,15.07
2022-08-24T04:59:05.860Z,15.05
2022-08-24T05:01:34.753Z,15.07
2022-08-24T05:04:02.811Z,15.07
2022-08-24T05:06:33.658Z,15.09
2022-08-24T05:09:03.211Z,15.09
2022-08-24T05:11:31.099Z,15.13
2022-08-24T05:13:59.169Z,15.13
2022-08-24T05:16:30.504Z,15.17
2022-08-24T05:18:59.517Z,15.21
2022-08-24T05:21:29.434Z,15.23
2022-08-24T05:23:57.138Z,15.27
2022-08-24T05:26:27.929Z,15.27
2022-08-24T05:28:57.786Z,15.25
2022-08-24T05:31:28.834Z,15.26
2022-08-24T05:33:56.767Z,15.26
2022-08-24T05:36:33.761Z,15.25
2022-08-24T05:39:10.995Z,15.23
2022-08-24T05:41:44.035Z,15.25
2022-08-24T05:44:17.004Z,15.25
2022-08-24T05:46:45.814Z,15.28
2022-08-24T05:49:13.844Z,15.28
2022-08-24T05:51:43.734Z,15.31
2022-08-24T05:54:14.719Z,15.37
2022-08-24T05:56:42.876Z,15.44
2022-08-24T05:59:10.698Z,15.53
2022-08-24T06:01:43.365Z,15.60
2022-08-24T06:04:13.984Z,15.68
2022-08-24T06:06:43.206Z,15.73
2022-08-24T06:09:12.897Z,15.85
2022-08-24T06:11:41.971Z,15.94
2022-08-24T06:14:12.612Z,16.03
2022-08-24T06:16:43.758Z,16.12
2022-08-24T06:19:14.431Z,16.19
2022-08-24T06:21:42.842Z,16.26
2022-08-24T06:24:10.742Z,16.32
2022-08-24T06:26:56.980Z,16.37
2022-08-24T06:29:24.684Z,16.42
2022-08-24T06:31:54.830Z,16.49
2022-08-24T06:34:26.656Z,16.55
2022-08-24T06:36:54.303Z,16.63
2022-08-24T06:39:22.087Z,16.70
2022-08-24T06:41:49.790Z,16.77
2022-08-24T06:44:17.606Z,16.84
2022-08-24T06:46:45.436Z,16.92
2022-08-24T06:49:13.389Z,16.99
2022-08-24T06:51:41.154Z,17.05
2022-08-24T06:54:09.641Z,17.13
2022-08-24T06:56:39.185Z,17.20
2022-08-24T06:59:07.293Z,17.28
2022-08-24T07:01:35.161Z,17.35
2022-08-24T07:04:03.027Z,17.44
2022-08-24T07:06:30.834Z,17.52
2022-08-24T07:08:58.556Z,17.62
2022-08-24T07:11:26.663Z,17.75
2022-08-24T07:13:54.397Z,17.83
2022-08-24T07:16:22.653Z,17.94
2022-08-24T07:18:50.746Z,18.05
2022-08-24T07:21:20.551Z,18.13
2022-08-24T07:23:56.207Z,18.23
2022-08-24T07:26:26.650Z,18.35
2022-08-24T07:29:02.196Z,18.45
2022-08-24T07:31:34.709Z,18.54
2022-08-24T07:34:04.709Z,18.64
2022-08-24T07:36:32.566Z,18.68
2022-08-24T07:39:00.398Z,18.74
2022-08-24T07:44:16.743Z,18.86
2022-08-24T07:46:44.749Z,18.90
2022-08-24T07:49:33.023Z,18.99
2022-08-24T07:52:01.853Z,19.04
2022-08-24T07:54:32.644Z,19.14
2022-08-24T07:57:03.294Z,19.22
2022-08-24T07:59:31.227Z,19.30
2022-08-24T08:02:00.285Z,19.38
2022-08-24T08:04:28.155Z,19.46
2022-08-24T08:09:29.129Z,19.58
2022-08-24T08:11:56.894Z,19.65
2022-08-24T08:14:24.601Z,19.70
2022-08-24T08:16:52.523Z,19.76
2022-08-24T08:19:20.552Z,19.83
2022-08-24T08:22:10.239Z,19.90
2022-08-24T08:24:44.801Z,19.97
2022-08-24T08:27:14.020Z,20.04
2022-08-24T08:29:42.074Z,20.09
2022-08-24T08:32:13.236Z,20.15
2022-08-24T08:34:40.938Z,20.20
2022-08-24T08:37:08.846Z,20.28
2022-08-24T08:39:37.006Z,20.35
2022-08-24T08:42:26.333Z,20.41
2022-08-24T08:45:37.223Z,20.46
2022-08-24T08:48:19.837Z,20.54
2022-08-24T08:51:26.617Z,20.60
2022-08-24T08:54:06.314Z,20.68
2022-08-24T08:56:58.583Z,20.74
2022-08-24T08:59:39.971Z,20.82
2022-08-24T09:02:35.706Z,20.89
2022-08-24T09:07:47.353Z,21.03
2022-08-24T09:10:42.032Z,21.09
2022-08-24T09:13:31.550Z,21.15
2022-08-24T09:15:59.837Z,21.20
2022-08-24T09:18:42.785Z,21.27
2022-08-24T09:21:10.881Z,21.33
2022-08-24T09:23:55.176Z,21.37
2022-08-24T09:26:27.031Z,21.46
2022-08-24T09:29:13.419Z,21.55
2022-08-24T09:31:59.425Z,21.64
2022-08-24T09:34:27.030Z,21.72
2022-08-24T09:36:56.822Z,21.80
2022-08-24T09:39:57.869Z,21.88
2022-08-24T09:42:50.364Z,22.00
2022-08-24T09:45:38.581Z,22.10
2022-08-24T09:48:41.328Z,22.24
2022-08-24T09:51:44.922Z,22.34
2022-08-24T09:54:48.551Z,22.46
2022-08-24T09:57:50.404Z,22.57
2022-08-24T10:00:28.681Z,22.66
2022-08-24T10:03:00.551Z,22.75
2022-08-24T10:05:49.690Z,22.80
2022-08-24T10:08:40.761Z,22.91
2022-08-24T10:11:13.334Z,23.03
2022-08-24T10:14:08.082Z,23.10
2022-08-24T10:16:50.827Z,23.19
2022-08-24T10:20:13.616Z,23.30
2022-08-24T10:22:53.228Z,23.41
2022-08-24T10:25:42.011Z,23.50
2022-08-24T10:28:38.893Z,23.58
2022-08-24T10:31:28.206Z,23.69
2022-08-24T10:34:31.316Z,23.78
2022-08-24T10:37:17.297Z,23.88
2022-08-24T10:40:15.974Z,23.97
2022-08-24T10:43:29.641Z,24.06
2022-08-24T10:46:00.194Z,24.16
2022-08-24T10:48:33.377Z,24.26
2022-08-24T10:51:44.249Z,24.36
2022-08-24T10:54:14.351Z,24.43
2022-08-24T10:57:11.909Z,24.52
2022-08-24T10:59:56.793Z,24.60
2022-08-24T11:02:30.604Z,24.67
2022-08-24T11:05:03.060Z,24.75
2022-08-24T11:07:30.850Z,24.82
2022-08-24T11:10:01.154Z,24.89
2022-08-24T11:12:37.706Z,24.96
2022-08-24T11:15:23.273Z,25.05
2022-08-24T11:18:05.174Z,25.13
2022-08-24T11:20:34.841Z,25.20
2022-08-24T11:23:18.996Z,25.27
2022-08-24T11:26:05.084Z,25.34
2022-08-24T11:28:58.644Z,25.41
2022-08-24T11:31:35.578Z,25.46
2022-08-24T11:34:14.886Z,25.54
2022-08-24T11:36:43.400Z,25.60
2022-08-24T11:39:25.120Z,25.67
2022-08-24T11:42:15.837Z,25.73
2022-08-24T11:45:10.784Z,25.80
2022-08-24T11:48:05.422Z,25.88
2022-08-24T11:50:42.074Z,25.94
2022-08-24T11:53:15.081Z,25.98
2022-08-24T11:56:05.698Z,26.01
2022-08-24T11:58:59.282Z,26.06
2022-08-24T12:01:52.439Z,26.14
2022-08-24T12:04:26.067Z,26.23
2022-08-24T12:07:11.823Z,26.30
2022-08-24T12:09:48.009Z,26.35
2022-08-24T12:12:36.453Z,26.42
2022-08-24T12:15:13.215Z,26.50
2022-08-24T12:17:56.926Z,26.57
2022-08-24T12:20:33.517Z,26.67
2022-08-24T12:23:18.215Z,26.75
2022-08-24T12:26:02.963Z,26.80
2022-08-24T12:28:45.351Z,26.82
2022-08-24T12:31:44.827Z,26.89
2022-08-24T12:34:19.939Z,26.92
2022-08-24T12:37:16.181Z,26.96
2022-08-24T12:39:53.346Z,26.98
2022-08-24T12:42:35.298Z,27.04
2022-08-24T12:45:12.692Z,27.03
2022-08-24T12:47:52.161Z,27.09
2022-08-24T12:50:36.505Z,27.08
2022-08-24T12:53:04.349Z,27.08
2022-08-24T12:55:52.534Z,27.11
2022-08-24T12:58:57.451Z,27.10
2022-08-24T13:01:29.596Z,27.10
2022-08-24T13:04:09.288Z,27.11
2022-08-24T13:07:06.017Z,27.10
2022-08-24T13:09:46.083Z,27.10
2022-08-24T13:12:34.936Z,27.08
2022-08-24T13:15:24.482Z,27.03
2022-08-24T13:18:00.232Z,27.00
2022-08-24T13:20:52.475Z,26.98
2022-08-24T13:23:22.288Z,26.93
2022-08-24T13:25:52.465Z,26.88
2022-08-24T13:28:22.963Z,26.80
2022-08-24T13:31:18.497Z,26.80
2022-08-24T13:34:05.324Z,26.75
2022-08-24T13:36:33.521Z,26.71
2022-08-24T13:39:21.688Z,26.66
2022-08-24T13:42:13.748Z,26.63
2022-08-24T13:44:47.527Z,26.61
2022-08-24T13:47:18.190Z,26.57
2022-08-24T13:50:03.248Z,26.56
2022-08-24T13:53:01.353Z,26.53
2022-08-24T13:55:46.210Z,26.52
2022-08-24T13:58:35.946Z,26.50
2022-08-24T14:01:06.599Z,26.48
2022-08-24T14:03:57.405Z,26.50
2022-08-24T14:07:01.504Z,26.49
2022-08-24T14:09:49.661Z,26.47
2022-08-24T14:12:26.538Z,26.49
2022-08-24T14:15:20.557Z,26.52
2022-08-24T14:18:00.433Z,26.53
2022-08-24T14:20:49.943Z,26.56
2022-08-24T14:23:46.084Z,26.58
2022-08-24T14:26:39.342Z,26.55
2022-08-24T14:29:38.002Z,26.55
2022-08-24T14:32:08.678Z,26.55
2022-08-24T14:34:43.092Z,26.55
2022-08-24T14:37:19.697Z,26.59
2022-08-24T14:39:56.199Z,26.60
2022-08-24T14:42:47.268Z,26.61
2022-08-24T14:45:39.066Z,26.64
2022-08-24T14:48:18.761Z,26.67
2022-08-24T14:51:11.489Z,26.69
2022-08-24T14:54:08.749Z,26.67
2022-08-24T14:57:19.356Z,26.71
2022-08-24T15:00:13.523Z,26.74
2022-08-24T15:02:56.305Z,26.75
2022-08-24T15:05:33.010Z,26.79
2022-08-24T15:08:16.254Z,26.79
2022-08-24T15:11:16.431Z,26.81
2022-08-24T15:13:56.226Z,26.79
2022-08-24T15:16:35.079Z,26.80
2022-08-24T15:19:23.018Z,26.77
2022-08-24T15:22:16.121Z,26.78
2022-08-24T15:24:53.490Z,26.80
2022-08-24T15:27:52.204Z,26.82
2022-08-24T15:30:29.081Z,26.84
2022-08-24T15:33:20.175Z,26.86
2022-08-24T15:36:04.389Z,26.93
2022-08-24T15:38:33.709Z,26.96
2022-08-24T15:41:09.923Z,26.98
2022-08-24T15:44:01.010Z,27.01
2022-08-24T15:46:46.766Z,27.00
2022-08-24T15:49:23.177Z,27.00
2022-08-24T15:52:03.423Z,27.02
2022-08-24T15:54:59.168Z,27.04
2022-08-24T15:57:28.783Z,27.09
2022-08-24T16:00:09.247Z,27.13
2022-08-24T16:02:39.714Z,27.17
2022-08-24T16:05:14.435Z,27.22
2022-08-24T16:08:05.477Z,27.26
2022-08-24T16:10:45.236Z,27.27
2022-08-24T16:13:18.844Z,27.27
2022-08-24T16:16:16.304Z,27.29
2022-08-24T16:18:53.698Z,27.30
2022-08-24T16:21:40.673Z,27.26
2022-08-24T16:24:13.717Z,27.25
2022-08-24T16:26:47.416Z,27.21
2022-08-24T16:29:38.849Z,27.14
2022-08-24T16:32:22.979Z,27.08
2022-08-24T16:35:02.257Z,27.02
2022-08-24T16:37:30.017Z,26.96
2022-08-24T16:39:57.656Z,26.88
2022-08-24T16:42:28.491Z,26.84
2022-08-24T16:44:57.488Z,26.78
2022-08-24T16:47:26.109Z,26.72
2022-08-24T16:49:53.839Z,26.65
2022-08-24T16:52:22.220Z,26.56
2022-08-24T16:54:50.435Z,26.50
2022-08-24T16:57:29.122Z,26.44
2022-08-24T16:59:57.024Z,26.37
2022-08-24T17:02:26.786Z,26.28
2022-08-24T17:04:55.772Z,26.21
2022-08-24T17:07:27.380Z,26.14
2022-08-24T17:09:56.127Z,26.02
2022-08-24T17:12:25.082Z,25.88
2022-08-24T17:14:52.833Z,25.76
2022-08-24T17:17:23.265Z,25.66
2022-08-24T17:19:54.494Z,25.54
2022-08-24T17:22:24.259Z,25.46
2022-08-24T17:24:52.301Z,25.37
2022-08-24T17:27:23.963Z,25.30
2022-08-24T17:29:51.829Z,25.25
2022-08-24T17:32:19.624Z,25.18
2022-08-24T17:34:47.418Z,25.12
2022-08-24T17:37:15.202Z,25.06
2022-08-24T17:39:42.901Z,24.98
2022-08-24T17:42:33.647Z,24.92
2022-08-24T17:44:58.381Z,24.86
2022-08-24T17:47:26.216Z,24.81
2022-08-24T17:49:53.944Z,24.76
2022-08-24T17:52:21.698Z,24.74
2022-08-24T17:54:49.470Z,24.69
2022-08-24T17:57:17.295Z,24.69
2022-08-24T17:59:45.828Z,24.63
2022-08-24T18:02:13.696Z,24.63
2022-08-24T18:04:41.990Z,24.61
2022-08-24T18:07:13.615Z,24.56
2022-08-24T18:09:49.524Z,24.55
2022-08-24T18:12:20.174Z,24.51
2022-08-24T18:14:47.986Z,24.51
2022-08-24T18:17:22.704Z,24.47
2022-08-24T18:19:53.663Z,24.45
2022-08-24T18:22:21.554Z,24.42
2022-08-24T18:24:49.255Z,24.37
2022-08-24T18:27:25.781Z,24.34
2022-08-24T18:30:00.183Z,24.28
2022-08-24T18:32:31.199Z,24.24
2022-08-24T18:35:00.023Z,24.17
2022-08-24T18:37:27.672Z,24.14
2022-08-24T18:39:55.448Z,24.09
2022-08-24T18:42:26.423Z,24.04
2022-08-24T18:44:55.414Z,24.00
2022-08-24T18:47:23.143Z,23.96
2022-08-24T18:49:50.890Z,23.92
2022-08-24T18:52:20.089Z,23.89
2022-08-24T18:54:50.212Z,23.84
2022-08-24T18:57:19.584Z,23.83
2022-08-24T18:59:47.909Z,23.84
2022-08-24T19:02:32.308Z,23.83
2022-08-24T19:05:12.548Z,23.83
2022-08-24T19:07:42.805Z,23.86
2022-08-24T19:10:11.952Z,23.88
2022-08-24T19:12:55.981Z,23.91
2022-08-24T19:15:35.829Z,23.93
2022-08-24T19:18:07.740Z,23.96
2022-08-24T19:20:36.652Z,23.99
2022-08-24T19:23:15.603Z,24.02
2022-08-24T19:25:46.337Z,24.04
2022-08-24T19:28:14.534Z,24.07
2022-08-24T19:30:43.500Z,24.09
2022-08-24T19:33:14.348Z,24.11
2022-08-24T19:35:42.753Z,24.12
2022-08-24T19:38:10.462Z,24.13
2022-08-24T19:40:39.171Z,24.10
2022-08-24T19:43:08.511Z,24.07
2022-08-24T19:45:56.365Z,24.07
2022-08-24T19:48:25.575Z,24.04
2022-08-24T19:50:57.429Z,24.00
2022-08-24T19:53:26.606Z,23.93
2022-08-24T19:55:54.252Z,23.88
2022-08-24T19:58:30.530Z,23.80
2022-08-24T20:01:03.866Z,23.70
2022-08-24T20:03:31.606Z,23.63
2022-08-24T20:05:59.347Z,23.54
2022-08-24T20:08:27.021Z,23.45
2022-08-24T20:10:59.696Z,23.35
2022-08-24T20:13:27.925Z,23.25
2022-08-24T20:15:57.536Z,23.16
2022-08-24T20:18:31.785Z,23.07
2022-08-24T20:20:59.905Z,22.96
2022-08-24T20:23:28.518Z,22.89
2022-08-24T20:25:58.736Z,22.80
2022-08-24T20:28:38.172Z,22.72
2022-08-24T20:31:06.632Z,22.63
2022-08-24T20:33:34.385Z,22.54
2022-08-24T20:36:02.238Z,22.53
2022-08-24T20:38:31.895Z,22.44
2022-08-24T20:41:00.707Z,22.40
2022-08-24T20:43:29.410Z,22.35
2022-08-24T20:45:57.636Z,22.33
2022-08-24T20:48:31.469Z,22.24
2022-08-24T20:51:00.948Z,22.22
2022-08-24T20:53:28.709Z,22.19
2022-08-24T20:55:58.387Z,22.13
2022-08-24T20:58:26.623Z,22.08
2022-08-24T21:00:54.399Z,22.10
2022-08-24T21:03:22.490Z,22.03
2022-08-24T21:05:53.424Z,22.01
2022-08-24T21:08:21.277Z,21.96
2022-08-24T21:10:49.536Z,21.95
2022-08-24T21:13:17.342Z,21.92
2022-08-24T21:15:45.593Z,21.86
2022-08-24T21:18:13.327Z,21.83
2022-08-24T21:20:54.717Z,21.76
2022-08-24T21:23:31.269Z,21.80
2022-08-24T21:25:59.767Z,21.80
2022-08-24T21:28:27.600Z,21.72
2022-08-24T21:30:55.391Z,21.69
2022-08-24T21:33:41.775Z,21.62
2022-08-24T21:36:10.042Z,21.58
2022-08-24T21:38:38.205Z,21.49
2022-08-24T21:41:06.910Z,21.46
2022-08-24T21:43:34.839Z,21.40
2022-08-24T21:46:02.574Z,21.40
2022-08-24T21:48:30.250Z,21.36
2022-08-24T21:50:57.921Z,21.35
2022-08-24T21:53:28.475Z,21.28
2022-08-24T21:55:57.077Z,21.28
2022-08-24T21:58:25.456Z,21.21
2022-08-24T22:00:53.269Z,21.24
2022-08-24T22:03:26.728Z,21.18
2022-08-24T22:05:59.635Z,21.18
2022-08-24T22:08:28.008Z,21.27
2022-08-24T22:10:56.512Z,21.31
2022-08-24T22:13:24.175Z,21.31
2022-08-24T22:15:52.361Z,21.27
2022-08-24T22:18:20.083Z,21.21
2022-08-24T22:20:47.850Z,21.18
2022-08-24T22:23:15.600Z,21.13
2022-08-24T22:25:43.323Z,21.08
2022-08-24T22:28:11.223Z,21.06
2022-08-24T22:30:38.890Z,21.03
2022-08-24T22:33:07.074Z,21.07
2022-08-24T22:35:44.755Z,21.00
2022-08-24T22:38:13.624Z,20.91
2022-08-24T22:40:44.144Z,20.81
2022-08-24T22:43:13.318Z,20.71
2022-08-24T22:45:41.025Z,20.64
2022-08-24T22:48:08.733Z,20.57
2022-08-24T22:50:36.477Z,20.54
2022-08-24T22:53:04.757Z,20.60
2022-08-24T22:55:33.660Z,20.56
2022-08-24T22:58:01.411Z,20.52
2022-08-24T23:00:29.082Z,20.44
2022-08-24T23:02:56.737Z,20.42
2022-08-24T23:05:24.487Z,20.43
2022-08-24T23:07:52.165Z,20.38
2022-08-24T23:10:21.264Z,20.32
2022-08-24T23:12:49.059Z,20.24
2022-08-24T23:15:16.853Z,20.16
2022-08-24T23:17:44.727Z,20.10
2022-08-24T23:20:12.689Z,19.99
2022-08-24T23:22:41.874Z,19.93
2022-08-24T23:25:12.745Z,19.91
2022-08-24T23:27:42.946Z,19.87
2022-08-24T23:30:14.868Z,19.83
2022-08-24T23:32:44.122Z,19.79
2022-08-24T23:35:11.957Z,19.75
2022-08-24T23:37:39.803Z,19.72
2022-08-24T23:40:08.268Z,19.66
2022-08-24T23:42:36.037Z,19.65
2022-08-24T23:45:03.843Z,19.62
2022-08-24T23:47:35.913Z,19.57
2022-08-24T23:50:03.898Z,19.53
2022-08-24T23:52:40.300Z,19.48
2022-08-24T23:55:20.063Z,19.43
2022-08-24T23:57:48.495Z,19.41
